Perle — V2GH — position and weather

sailwx.info

Track history (hours):
 
Tides and Currents Weather Stations Pressure Air Temp Water Temp Dewpoint Dewpoint Depression Visibility Wind Speed Wind Dir Waves Ship Positions

Perle

Last reported at 2018-Jun-25 12:57 UTC. Time now 2018-Jun-25 14:16 UTC.
Position N 50°54' W 001°26'.

Length 90 m; draft 5.7 m.

Type: Cargo ship. MMSI: 305882000.

Date/timePositionNaut miles runAvg speedWind from/ knotsBaromVisibWave heightAir tempDewpointWater temp
2018-Jun-25 12:57N 50°54' W 001°26'0 0.0
2018-Jun-25 12:27N 50°54' W 001°26'0 0.0
2018-Jun-25 11:59N 50°54' W 001°26'0 0.0
2018-Jun-25 11:23N 50°54' W 001°26'0 0.0
2018-Jun-25 10:57N 50°54' W 001°26'0 0.0
2018-Jun-25 10:26N 50°54' W 001°26'0 0.0
2018-Jun-25 10:00N 50°54' W 001°26'0 0.0
2018-Jun-25 09:29N 50°54' W 001°26'0 0.0
2018-Jun-25 08:41N 50°54' W 001°26'0 0.0
2018-Jun-25 08:23N 50°54' W 001°26'0 0.0
2018-Jun-25 08:00N 50°54' W 001°26'0 0.0
2018-Jun-25 07:30N 50°54' W 001°26'0 0.0
2018-Jun-25 07:00N 50°54' W 001°26'0 0.0
2018-Jun-25 06:30N 50°54' W 001°26'0 0.0
2018-Jun-25 06:00N 50°54' W 001°26'0 0.0
2018-Jun-25 05:30N 50°54' W 001°26'0 0.0
2018-Jun-25 05:01N 50°54' W 001°26'0 0.0
2018-Jun-25 04:31N 50°54' W 001°26'0 0.0
2018-Jun-25 03:59N 50°54' W 001°26'0 0.0
2018-Jun-25 03:31N 50°54' W 001°26'0 0.0
2018-Jun-25 03:00N 50°54' W 001°26'0 0.0
2018-Jun-25 02:31N 50°54' W 001°26'0 0.0
2018-Jun-25 02:01N 50°54' W 001°26'0 0.0
2018-Jun-25 01:31N 50°54' W 001°26'0 0.0
2018-Jun-25 01:01N 50°54' W 001°26'0 0.0
2018-Jun-25 00:30N 50°54' W 001°26'0 0.0
2018-Jun-24 23:58N 50°54' W 001°26'0 0.0
2018-Jun-24 23:29N 50°54' W 001°26'0 0.0
2018-Jun-24 23:01N 50°54' W 001°26'0 0.0
2018-Jun-24 22:30N 50°54' W 001°26'0 0.0
2018-Jun-24 22:01N 50°54' W 001°26'0 0.0
2018-Jun-24 21:30N 50°54' W 001°26'0 0.0
2018-Jun-24 21:00N 50°54' W 001°26'0 0.0
2018-Jun-24 20:30N 50°54' W 001°26'0 0.0
2018-Jun-24 19:58N 50°54' W 001°26'0 0.0
2018-Jun-24 19:30N 50°54' W 001°26'0 0.0
2018-Jun-24 18:04N 50°54' W 001°26'0 0.0
2018-Jun-24 17:49N 50°54' W 001°26'0 0.0
2018-Jun-24 17:30N 50°54' W 001°26'0 0.0
2018-Jun-24 17:00N 50°54' W 001°26'0 0.0
2018-Jun-24 16:21N 50°54' W 001°26'0 0.0
2018-Jun-24 15:58N 50°54' W 001°26'0 0.0
2018-Jun-24 14:55N 50°54' W 001°26'0 0.0
2018-Jun-24 14:17N 50°54' W 001°26'0 0.0
2018-Jun-24 14:01N 50°54' W 001°26'0 0.0
2018-Jun-24 13:30N 50°54' W 001°26'0 0.0
2018-Jun-24 13:01N 50°54' W 001°26'0 0.0
2018-Jun-24 11:29N 50°54' W 001°26'0 0.0
2018-Jun-24 10:58N 50°54' W 001°26'0 0.0
2018-Jun-24 10:30N 50°54' W 001°26'0 0.0
2018-Jun-24 10:00N 50°54' W 001°26'0 0.0
2018-Jun-24 09:22N 50°54' W 001°26'0 0.9
2018-Jun-24 09:01N 50°54' W 001°26'3 6.8
2018-Jun-24 08:31N 50°52' W 001°22'510.2
2018-Jun-24 08:00N 50°48' W 001°16'510.6
2018-Jun-24 07:30N 50°46' W 001°09'4 7.9
2018-Jun-24 07:01N 50°44' W 001°03'4 7.6
2018-Jun-24 06:30N 50°42' W 000°58'4 8.1
2018-Jun-24 06:00N 50°38' W 000°59'4 7.7
2018-Jun-24 05:30N 50°34' W 000°60'4 7.6
2018-Jun-24 05:01N 50°30' W 001°00'4 7.5
2018-Jun-24 04:31N 50°28' W 001°04'4 8.0
2018-Jun-24 04:01N 50°25' W 001°09'510.1
2018-Jun-24 03:31N 50°22' W 001°15'67 8.0
2018-Jun-23 19:14N 49°52' W 002°48'2 8.6
2018-Jun-23 19:00N 49°51' W 002°50'10 9.5
2018-Jun-23 17:55N 49°47' W 003°04'410.3
2018-Jun-23 17:30N 49°44' W 003°10'510.3
2018-Jun-23 17:00N 49°42' W 003°17'510.4
2018-Jun-23 16:30N 49°39' W 003°24'910.4
2018-Jun-23 15:40N 49°34' W 003°35'210.4
2018-Jun-23 15:30N 49°33' W 003°37'1210.5
2018-Jun-23 14:24N 49°27' W 003°52'2110.5
2018-Jun-23 12:24N 49°16' W 004°20'3810.0
2018-Jun-23 08:36N 48°56' W 005°09'8 9.1
2018-Jun-23 07:45N 48°52' W 005°19'2 8.9
2018-Jun-23 07:30N 48°51' W 005°22'4 8.7
2018-Jun-23 07:01N 48°49' W 005°27'4 8.6
2018-Jun-23 06:30N 48°46' W 005°33'4 8.2
2018-Jun-23 06:01N 48°43' W 005°37'5 8.4
2018-Jun-23 05:28N 48°39' W 005°40'4 8.1
2018-Jun-23 04:59N 48°36' W 005°43'18 8.4
2018-Jun-23 02:48N 48°19' W 005°55'7 8.5
2018-Jun-23 01:59N 48°13' W 005°60'9 8.9
2018-Jun-23 00:58N 48°04' W 005°60'10 8.8
2018-Jun-22 23:53N 47°55' W 005°60'4 9.1
2018-Jun-22 23:29N 47°51' W 005°60'5 9.7
2018-Jun-22 23:01N 47°46' W 005°60'5 9.5
2018-Jun-22 22:31N 47°42' W 005°60'5 9.2
2018-Jun-22 21:59N 47°37' W 006°01'8 9.3
2018-Jun-22 21:08N 47°29' W 006°01'210.1
2018-Jun-22 20:54N 47°26' W 006°01'224 8.2
2018-Jun-21 17:32N 43°42' W 005°58'1 8.9
2018-Jun-21 17:24N 43°41' W 005°58'  
2018-Jun-18 06:48N 47°37' W 006°29'810.1
2018-Jun-18 05:58N 47°45' W 006°30'29 9.7
2018-Jun-18 02:58N 48°14' W 006°35'1010.3
2018-Jun-18 01:58N 48°24' W 006°36'1111.0
2018-Jun-18 00:58N 48°35' W 006°38'1111.2
2018-Jun-17 23:58N 48°46' W 006°40'305 9.6
2018-Jun-16 16:01N 53°33' W 003°53'112.1
2018-Jun-16 15:57N 53°33' W 003°52'512.1
2018-Jun-16 15:30N 53°33' W 003°43'611.9
2018-Jun-16 15:00N 53°33' W 003°33'611.5
2018-Jun-16 14:30N 53°33' W 003°23'510.5
2018-Jun-16 14:00N 53°31' W 003°15'5 9.8
2018-Jun-16 13:30N 53°31' W 003°06'510.6
2018-Jun-16 13:00N 53°26' W 003°01'4 8.5
2018-Jun-16 12:30N 53°22' W 002°58'3 5.8
2018-Jun-16 12:00N 53°21' W 002°54'0 0.1
2018-Jun-16 10:18N 53°21' W 002°54'0 0.0
2018-Jun-16 10:00N 53°21' W 002°54'0 0.0
2018-Jun-16 09:24N 53°21' W 002°54'0 0.0
2018-Jun-16 08:57N 53°21' W 002°54'0 0.0
2018-Jun-16 08:30N 53°21' W 002°54'0 0.0
2018-Jun-16 08:00N 53°21' W 002°54'0 0.0
2018-Jun-16 07:27N 53°21' W 002°54'0 0.0
2018-Jun-16 07:00N 53°21' W 002°54'0 0.0
2018-Jun-16 06:30N 53°21' W 002°54'0 0.0
2018-Jun-16 06:00N 53°21' W 002°54'0 0.0
2018-Jun-16 05:30N 53°21' W 002°54'0 0.0
2018-Jun-16 04:57N 53°21' W 002°54'0 0.0
2018-Jun-16 04:30N 53°21' W 002°54'0 0.0
2018-Jun-16 04:00N 53°21' W 002°54'0 0.0
2018-Jun-16 03:30N 53°21' W 002°54'0 0.0
2018-Jun-16 03:00N 53°21' W 002°54'0 0.0
2018-Jun-16 02:30N 53°21' W 002°54'0 0.0
2018-Jun-16 01:54N 53°21' W 002°54'0 0.0
2018-Jun-16 01:30N 53°21' W 002°54'0 0.0
2018-Jun-16 00:57N 53°21' W 002°54'0 0.0
2018-Jun-16 00:27N 53°21' W 002°54'0 0.0
2018-Jun-16 00:00N 53°21' W 002°54'0 0.0
2018-Jun-15 23:30N 53°21' W 002°54'0 0.0
2018-Jun-15 23:00N 53°21' W 002°54'0 0.0
2018-Jun-15 22:30N 53°21' W 002°54'0 0.0
2018-Jun-15 22:00N 53°21' W 002°54'0 0.0
2018-Jun-15 21:30N 53°21' W 002°54'0 0.0
2018-Jun-15 21:00N 53°21' W 002°54'0 0.0
2018-Jun-15 20:30N 53°21' W 002°54'0 0.0
2018-Jun-15 19:48N 53°21' W 002°54'0 0.0
2018-Jun-15 19:30N 53°21' W 002°54'0 0.0
2018-Jun-15 19:00N 53°21' W 002°54'0 0.0
2018-Jun-15 18:30N 53°21' W 002°54'0 0.0
2018-Jun-15 18:00N 53°21' W 002°54'0 0.0
2018-Jun-15 17:30N 53°21' W 002°54'0 0.0
2018-Jun-15 17:00N 53°21' W 002°54'0 0.0
2018-Jun-15 16:30N 53°21' W 002°54'0 0.0
2018-Jun-15 16:00N 53°21' W 002°54'0 0.0
2018-Jun-15 15:27N 53°21' W 002°54'0 0.0
2018-Jun-15 15:00N 53°21' W 002°54'0 0.0
2018-Jun-15 14:27N 53°21' W 002°54'0 0.0
2018-Jun-15 13:54N 53°21' W 002°54'0 0.0
2018-Jun-15 13:27N 53°21' W 002°54'0 0.0
2018-Jun-15 13:00N 53°21' W 002°54'  
Track history (hours):
 
Tides and Currents Weather Stations Pressure Air Temp Water Temp Dewpoint Dewpoint Depression Visibility Wind Speed Wind Dir Waves Ship Positions

Perle

Last reported at 2018-Jun-25 12:57 UTC. Time now 2018-Jun-25 14:16 UTC.
Position N 50°54' W 001°26'.

Length 90 m; draft 5.7 m.

Type: Cargo ship. MMSI: 305882000.

Date/timePositionNaut miles runAvg speedWind from/ knotsBaromVisibWave heightAir tempDewpointWater temp
2018-Jun-25 12:57N 50°54' W 001°26'0 0.0
2018-Jun-25 12:27N 50°54' W 001°26'0 0.0
2018-Jun-25 11:59N 50°54' W 001°26'0 0.0
2018-Jun-25 11:23N 50°54' W 001°26'0 0.0
2018-Jun-25 10:57N 50°54' W 001°26'0 0.0
2018-Jun-25 10:26N 50°54' W 001°26'0 0.0
2018-Jun-25 10:00N 50°54' W 001°26'0 0.0
2018-Jun-25 09:29N 50°54' W 001°26'0 0.0
2018-Jun-25 08:41N 50°54' W 001°26'0 0.0
2018-Jun-25 08:23N 50°54' W 001°26'0 0.0
2018-Jun-25 08:00N 50°54' W 001°26'0 0.0
2018-Jun-25 07:30N 50°54' W 001°26'0 0.0
2018-Jun-25 07:00N 50°54' W 001°26'0 0.0
2018-Jun-25 06:30N 50°54' W 001°26'0 0.0
2018-Jun-25 06:00N 50°54' W 001°26'0 0.0
2018-Jun-25 05:30N 50°54' W 001°26'0 0.0
2018-Jun-25 05:01N 50°54' W 001°26'0 0.0
2018-Jun-25 04:31N 50°54' W 001°26'0 0.0
2018-Jun-25 03:59N 50°54' W 001°26'0 0.0
2018-Jun-25 03:31N 50°54' W 001°26'0 0.0
2018-Jun-25 03:00N 50°54' W 001°26'0 0.0
2018-Jun-25 02:31N 50°54' W 001°26'0 0.0
2018-Jun-25 02:01N 50°54' W 001°26'0 0.0
2018-Jun-25 01:31N 50°54' W 001°26'0 0.0
2018-Jun-25 01:01N 50°54' W 001°26'0 0.0
2018-Jun-25 00:30N 50°54' W 001°26'0 0.0
2018-Jun-24 23:58N 50°54' W 001°26'0 0.0
2018-Jun-24 23:29N 50°54' W 001°26'0 0.0
2018-Jun-24 23:01N 50°54' W 001°26'0 0.0
2018-Jun-24 22:30N 50°54' W 001°26'0 0.0
2018-Jun-24 22:01N 50°54' W 001°26'0 0.0
2018-Jun-24 21:30N 50°54' W 001°26'0 0.0
2018-Jun-24 21:00N 50°54' W 001°26'0 0.0
2018-Jun-24 20:30N 50°54' W 001°26'0 0.0
2018-Jun-24 19:58N 50°54' W 001°26'0 0.0
2018-Jun-24 19:30N 50°54' W 001°26'0 0.0
2018-Jun-24 18:04N 50°54' W 001°26'0 0.0
2018-Jun-24 17:49N 50°54' W 001°26'0 0.0
2018-Jun-24 17:30N 50°54' W 001°26'0 0.0
2018-Jun-24 17:00N 50°54' W 001°26'0 0.0
2018-Jun-24 16:21N 50°54' W 001°26'0 0.0
2018-Jun-24 15:58N 50°54' W 001°26'0 0.0
2018-Jun-24 14:55N 50°54' W 001°26'0 0.0
2018-Jun-24 14:17N 50°54' W 001°26'0 0.0
2018-Jun-24 14:01N 50°54' W 001°26'0 0.0
2018-Jun-24 13:30N 50°54' W 001°26'0 0.0
2018-Jun-24 13:01N 50°54' W 001°26'0 0.0
2018-Jun-24 11:29N 50°54' W 001°26'0 0.0
2018-Jun-24 10:58N 50°54' W 001°26'0 0.0
2018-Jun-24 10:30N 50°54' W 001°26'0 0.0
2018-Jun-24 10:00N 50°54' W 001°26'0 0.0
2018-Jun-24 09:22N 50°54' W 001°26'0 0.9
2018-Jun-24 09:01N 50°54' W 001°26'3 6.8
2018-Jun-24 08:31N 50°52' W 001°22'510.2
2018-Jun-24 08:00N 50°48' W 001°16'510.6
2018-Jun-24 07:30N 50°46' W 001°09'4 7.9
2018-Jun-24 07:01N 50°44' W 001°03'4 7.6
2018-Jun-24 06:30N 50°42' W 000°58'4 8.1
2018-Jun-24 06:00N 50°38' W 000°59'4 7.7
2018-Jun-24 05:30N 50°34' W 000°60'4 7.6
2018-Jun-24 05:01N 50°30' W 001°00'4 7.5
2018-Jun-24 04:31N 50°28' W 001°04'4 8.0
2018-Jun-24 04:01N 50°25' W 001°09'510.1
2018-Jun-24 03:31N 50°22' W 001°15'67 8.0
2018-Jun-23 19:14N 49°52' W 002°48'2 8.6
2018-Jun-23 19:00N 49°51' W 002°50'10 9.5
2018-Jun-23 17:55N 49°47' W 003°04'410.3
2018-Jun-23 17:30N 49°44' W 003°10'510.3
2018-Jun-23 17:00N 49°42' W 003°17'510.4
2018-Jun-23 16:30N 49°39' W 003°24'910.4
2018-Jun-23 15:40N 49°34' W 003°35'210.4
2018-Jun-23 15:30N 49°33' W 003°37'1210.5
2018-Jun-23 14:24N 49°27' W 003°52'2110.5
2018-Jun-23 12:24N 49°16' W 004°20'3810.0
2018-Jun-23 08:36N 48°56' W 005°09'8 9.1
2018-Jun-23 07:45N 48°52' W 005°19'2 8.9
2018-Jun-23 07:30N 48°51' W 005°22'4 8.7
2018-Jun-23 07:01N 48°49' W 005°27'4 8.6
2018-Jun-23 06:30N 48°46' W 005°33'4 8.2
2018-Jun-23 06:01N 48°43' W 005°37'5 8.4
2018-Jun-23 05:28N 48°39' W 005°40'4 8.1
2018-Jun-23 04:59N 48°36' W 005°43'18 8.4
2018-Jun-23 02:48N 48°19' W 005°55'7 8.5
2018-Jun-23 01:59N 48°13' W 005°60'9 8.9
2018-Jun-23 00:58N 48°04' W 005°60'10 8.8
2018-Jun-22 23:53N 47°55' W 005°60'4 9.1
2018-Jun-22 23:29N 47°51' W 005°60'5 9.7
2018-Jun-22 23:01N 47°46' W 005°60'5 9.5
2018-Jun-22 22:31N 47°42' W 005°60'5 9.2
2018-Jun-22 21:59N 47°37' W 006°01'8 9.3
2018-Jun-22 21:08N 47°29' W 006°01'210.1
2018-Jun-22 20:54N 47°26' W 006°01'224 8.2
2018-Jun-21 17:32N 43°42' W 005°58'1 8.9
2018-Jun-21 17:24N 43°41' W 005°58'  
2018-Jun-18 06:48N 47°37' W 006°29'810.1
2018-Jun-18 05:58N 47°45' W 006°30'29 9.7
2018-Jun-18 02:58N 48°14' W 006°35'1010.3
2018-Jun-18 01:58N 48°24' W 006°36'1111.0
2018-Jun-18 00:58N 48°35' W 006°38'1111.2
2018-Jun-17 23:58N 48°46' W 006°40'305 9.6
2018-Jun-16 16:01N 53°33' W 003°53'112.1
2018-Jun-16 15:57N 53°33' W 003°52'512.1
2018-Jun-16 15:30N 53°33' W 003°43'611.9
2018-Jun-16 15:00N 53°33' W 003°33'611.5
2018-Jun-16 14:30N 53°33' W 003°23'510.5
2018-Jun-16 14:00N 53°31' W 003°15'5 9.8
2018-Jun-16 13:30N 53°31' W 003°06'510.6
2018-Jun-16 13:00N 53°26' W 003°01'4 8.5
2018-Jun-16 12:30N 53°22' W 002°58'3 5.8
2018-Jun-16 12:00N 53°21' W 002°54'0 0.1
2018-Jun-16 10:18N 53°21' W 002°54'0 0.0
2018-Jun-16 10:00N 53°21' W 002°54'0 0.0
2018-Jun-16 09:24N 53°21' W 002°54'0 0.0
2018-Jun-16 08:57N 53°21' W 002°54'0 0.0
2018-Jun-16 08:30N 53°21' W 002°54'0 0.0
2018-Jun-16 08:00N 53°21' W 002°54'0 0.0
2018-Jun-16 07:27N 53°21' W 002°54'0 0.0
2018-Jun-16 07:00N 53°21' W 002°54'0 0.0
2018-Jun-16 06:30N 53°21' W 002°54'0 0.0
2018-Jun-16 06:00N 53°21' W 002°54'0 0.0
2018-Jun-16 05:30N 53°21' W 002°54'0 0.0
2018-Jun-16 04:57N 53°21' W 002°54'0 0.0
2018-Jun-16 04:30N 53°21' W 002°54'0 0.0
2018-Jun-16 04:00N 53°21' W 002°54'0 0.0
2018-Jun-16 03:30N 53°21' W 002°54'0 0.0
2018-Jun-16 03:00N 53°21' W 002°54'0 0.0
2018-Jun-16 02:30N 53°21' W 002°54'0 0.0
2018-Jun-16 01:54N 53°21' W 002°54'0 0.0
2018-Jun-16 01:30N 53°21' W 002°54'0 0.0
2018-Jun-16 00:57N 53°21' W 002°54'0 0.0
2018-Jun-16 00:27N 53°21' W 002°54'0 0.0
2018-Jun-16 00:00N 53°21' W 002°54'0 0.0
2018-Jun-15 23:30N 53°21' W 002°54'0 0.0
2018-Jun-15 23:00N 53°21' W 002°54'0 0.0
2018-Jun-15 22:30N 53°21' W 002°54'0 0.0
2018-Jun-15 22:00N 53°21' W 002°54'0 0.0
2018-Jun-15 21:30N 53°21' W 002°54'0 0.0
2018-Jun-15 21:00N 53°21' W 002°54'0 0.0
2018-Jun-15 20:30N 53°21' W 002°54'0 0.0
2018-Jun-15 19:48N 53°21' W 002°54'0 0.0
2018-Jun-15 19:30N 53°21' W 002°54'0 0.0
2018-Jun-15 19:00N 53°21' W 002°54'0 0.0
2018-Jun-15 18:30N 53°21' W 002°54'0 0.0
2018-Jun-15 18:00N 53°21' W 002°54'0 0.0
2018-Jun-15 17:30N 53°21' W 002°54'0 0.0
2018-Jun-15 17:00N 53°21' W 002°54'0 0.0
2018-Jun-15 16:30N 53°21' W 002°54'0 0.0
2018-Jun-15 16:00N 53°21' W 002°54'0 0.0
2018-Jun-15 15:27N 53°21' W 002°54'0 0.0
2018-Jun-15 15:00N 53°21' W 002°54'0 0.0
2018-Jun-15 14:27N 53°21' W 002°54'0 0.0
2018-Jun-15 13:54N 53°21' W 002°54'0 0.0
2018-Jun-15 13:27N 53°21' W 002°54'0 0.0
2018-Jun-15 13:00N 53°21' W 002°54'  

Dump ship's entire track history